createdAt,value
2019-03-01T00:02:23.780Z,9.20
2019-03-01T00:05:52.586Z,9.00
2019-03-01T00:09:00.067Z,8.90
2019-03-01T00:12:11.090Z,9.00
2019-03-01T00:15:02.139Z,8.90
2019-03-01T00:18:10.790Z,8.90
2019-03-01T00:21:36.825Z,9.00
2019-03-01T00:24:40.974Z,9.10
2019-03-01T00:27:43.518Z,9.10
2019-03-01T00:30:54.053Z,9.10
2019-03-01T00:33:50.198Z,9.20
2019-03-01T00:37:03.383Z,9.10
2019-03-01T00:39:53.417Z,9.20
2019-03-01T00:43:22.102Z,9.20
2019-03-01T00:45:51.618Z,9.20
2019-03-01T00:48:21.142Z,9.10
2019-03-01T00:50:50.722Z,9.10
2019-03-01T00:53:20.179Z,9.10
2019-03-01T00:55:49.718Z,9.20
2019-03-01T00:58:19.257Z,9.10
2019-03-01T01:00:49.601Z,9.20
2019-03-01T01:03:19.209Z,9.20
2019-03-01T01:05:48.695Z,9.20
2019-03-01T01:08:18.261Z,9.20
2019-03-01T01:10:47.792Z,9.10
2019-03-01T01:13:17.298Z,9.10
2019-03-01T01:15:46.836Z,9.20
2019-03-01T01:18:16.368Z,9.20
2019-03-01T01:20:45.993Z,9.10
2019-03-01T01:23:15.535Z,9.20
2019-03-01T01:25:45.055Z,9.20
2019-03-01T01:28:14.588Z,9.20
2019-03-01T01:30:44.121Z,9.00
2019-03-01T01:33:13.608Z,9.10
2019-03-01T01:35:43.226Z,9.20
2019-03-01T01:38:12.663Z,9.30
2019-03-01T01:40:42.213Z,9.20
2019-03-01T01:43:11.703Z,9.20
2019-03-01T01:45:41.250Z,9.00
2019-03-01T01:48:10.776Z,9.00
2019-03-01T01:50:40.323Z,9.10
2019-03-01T01:53:09.822Z,8.70
2019-03-01T01:55:39.366Z,8.90
2019-03-01T01:58:08.849Z,8.80
2019-03-01T02:00:39.196Z,8.80
2019-03-01T02:03:08.685Z,8.90
2019-03-01T02:05:38.198Z,8.90
2019-03-01T02:08:07.739Z,8.90
2019-03-01T02:10:37.291Z,8.80
2019-03-01T02:13:06.825Z,8.80
2019-03-01T02:15:36.318Z,8.80
2019-03-01T02:18:06.249Z,8.80
2019-03-01T02:20:35.719Z,8.80
2019-03-01T02:23:05.227Z,8.90
2019-03-01T02:25:34.736Z,8.80
2019-03-01T02:28:04.283Z,8.80
2019-03-01T02:30:34.048Z,8.80
2019-03-01T02:33:03.569Z,8.90
2019-03-01T02:35:33.137Z,9.00
2019-03-01T02:38:02.633Z,9.00
2019-03-01T02:40:35.699Z,9.00
2019-03-01T02:43:05.202Z,9.00
2019-03-01T02:45:34.768Z,9.10
2019-03-01T02:48:04.237Z,9.10
2019-03-01T02:50:33.774Z,9.00
2019-03-01T02:53:03.286Z,8.90
2019-03-01T02:55:32.804Z,8.90
2019-03-01T02:58:02.276Z,8.90
2019-03-01T03:00:31.931Z,8.90
2019-03-01T03:03:01.436Z,8.90
2019-03-01T03:05:31.058Z,8.90
2019-03-01T03:08:02.457Z,9.00
2019-03-01T03:10:32.020Z,8.80
2019-03-01T03:13:03.751Z,8.90
2019-03-01T03:15:42.125Z,8.80
2019-03-01T03:18:11.672Z,8.80
2019-03-01T03:20:41.207Z,8.70
2019-03-01T03:23:10.709Z,8.60
2019-03-01T03:25:40.256Z,8.70
2019-03-01T03:28:09.736Z,8.60
2019-03-01T03:30:39.255Z,8.60
2019-03-01T03:33:08.763Z,8.60
2019-03-01T03:35:38.306Z,8.40
2019-03-01T03:38:07.811Z,8.50
2019-03-01T03:40:37.325Z,8.50
2019-03-01T03:43:06.841Z,8.50
2019-03-01T03:45:36.343Z,8.50
2019-03-01T03:48:05.890Z,8.40
2019-03-01T03:50:35.379Z,8.40
2019-03-01T03:53:04.919Z,8.40
2019-03-01T03:55:34.546Z,8.30
2019-03-01T03:58:04.054Z,8.40
2019-03-01T04:00:33.592Z,8.50
2019-03-01T04:03:03.132Z,8.60
2019-03-01T04:05:32.761Z,8.70
2019-03-01T04:08:02.434Z,8.70
2019-03-01T04:10:31.920Z,8.50
2019-03-01T04:13:01.455Z,8.40
2019-03-01T04:15:30.928Z,8.50
2019-03-01T04:18:00.459Z,7.90
2019-03-01T04:20:29.942Z,7.70
2019-03-01T04:22:59.444Z,7.70
2019-03-01T04:25:29.000Z,7.80
2019-03-01T04:27:58.503Z,8.20
2019-03-01T04:30:27.972Z,7.80
2019-03-01T04:32:57.502Z,7.60
2019-03-01T04:35:26.972Z,7.90
2019-03-01T04:37:56.547Z,8.10
2019-03-01T04:40:26.069Z,8.30
2019-03-01T04:42:55.611Z,8.10
2019-03-01T04:45:25.127Z,7.70
2019-03-01T04:47:54.628Z,8.00
2019-03-01T04:50:24.175Z,8.10
2019-03-01T04:52:53.705Z,8.20
2019-03-01T04:55:24.916Z,8.00
2019-03-01T04:57:54.429Z,8.10
2019-03-01T05:00:24.765Z,8.20
2019-03-01T05:02:54.362Z,8.30
2019-03-01T05:05:23.878Z,8.20
2019-03-01T05:07:53.453Z,8.30
2019-03-01T05:10:22.994Z,8.40
2019-03-01T05:12:52.630Z,8.40
2019-03-01T05:15:22.928Z,8.30
2019-03-01T05:17:52.496Z,8.40
2019-03-01T05:20:22.058Z,8.30
2019-03-01T05:22:51.574Z,8.40
2019-03-01T05:25:21.085Z,8.30
2019-03-01T05:27:50.613Z,8.30
2019-03-01T05:30:20.140Z,8.40
2019-03-01T05:32:49.677Z,8.40
2019-03-01T05:35:19.229Z,8.40
2019-03-01T05:37:48.740Z,8.30
2019-03-01T05:40:18.254Z,8.30
2019-03-01T05:42:47.769Z,8.40
2019-03-01T05:45:19.790Z,8.40
2019-03-01T05:47:49.331Z,8.50
2019-03-01T05:50:18.803Z,8.50
2019-03-01T05:52:48.384Z,8.60
2019-03-01T05:55:17.898Z,8.60
2019-03-01T05:58:39.808Z,8.50
2019-03-01T06:01:48.593Z,8.50
2019-03-01T06:04:34.346Z,8.30
2019-03-01T06:07:28.525Z,8.30
2019-03-01T06:10:31.350Z,8.40
2019-03-01T06:13:39.186Z,8.10
2019-03-01T06:16:37.597Z,8.20
2019-03-01T06:19:27.262Z,8.40
2019-03-01T06:22:23.523Z,8.40
2019-03-01T06:25:20.620Z,8.50
2019-03-01T06:28:12.883Z,8.60
2019-03-01T06:31:22.230Z,8.70
2019-03-01T06:34:27.761Z,8.70
2019-03-01T06:37:13.794Z,8.70
2019-03-01T06:40:29.268Z,8.60
2019-03-01T06:43:07.953Z,8.60
2019-03-01T06:46:18.723Z,8.60
2019-03-01T06:49:07.152Z,8.50
2019-03-01T06:51:37.871Z,8.60
2019-03-01T06:54:07.450Z,8.60
2019-03-01T06:56:36.931Z,8.60
2019-03-01T06:59:07.634Z,8.60
2019-03-01T07:01:45.462Z,8.80
2019-03-01T07:04:18.563Z,8.80
2019-03-01T07:06:48.139Z,8.70
2019-03-01T07:09:17.652Z,8.80
2019-03-01T07:11:47.217Z,8.80
2019-03-01T07:14:16.719Z,8.90
2019-03-01T07:16:46.254Z,8.80
2019-03-01T07:19:15.752Z,8.90
2019-03-01T07:21:45.269Z,8.90
2019-03-01T07:24:14.832Z,8.90
2019-03-01T07:26:44.486Z,8.90
2019-03-01T07:29:13.993Z,9.00
2019-03-01T07:31:43.475Z,9.00
2019-03-01T07:34:13.910Z,8.90
2019-03-01T07:36:43.423Z,8.90
2019-03-01T07:39:12.985Z,8.90
2019-03-01T07:41:42.475Z,8.90
2019-03-01T07:44:12.002Z,8.80
2019-03-01T07:46:41.524Z,8.80
2019-03-01T07:49:11.026Z,8.90
2019-03-01T07:51:40.579Z,9.00
2019-03-01T07:54:13.340Z,9.00
2019-03-01T07:56:41.326Z,9.00
2019-03-01T07:59:10.807Z,9.10
2019-03-01T08:01:40.361Z,9.10
2019-03-01T08:04:09.869Z,9.20
2019-03-01T08:06:39.380Z,9.10
2019-03-01T08:09:13.475Z,9.30
2019-03-01T08:11:42.994Z,9.30
2019-03-01T08:14:12.544Z,9.20
2019-03-01T08:16:42.123Z,9.30
2019-03-01T08:19:11.606Z,9.30
2019-03-01T08:21:42.804Z,9.40
2019-03-01T08:24:12.248Z,9.40
2019-03-01T08:26:41.736Z,9.40
2019-03-01T08:29:11.275Z,9.40
2019-03-01T08:31:40.769Z,9.40
2019-03-01T08:34:10.295Z,9.30
2019-03-01T08:36:42.507Z,9.40
2019-03-01T08:39:10.977Z,9.40
2019-03-01T08:41:40.524Z,9.40
2019-03-01T08:44:10.032Z,9.50
2019-03-01T08:46:42.036Z,9.50
2019-03-01T08:49:11.520Z,9.50
2019-03-01T08:51:41.078Z,9.60
2019-03-01T08:54:10.621Z,9.70
2019-03-01T08:56:40.150Z,9.70
2019-03-01T08:59:09.643Z,9.60
2019-03-01T09:01:41.747Z,9.60
2019-03-01T09:04:14.256Z,9.50
2019-03-01T09:06:43.901Z,9.60
2019-03-01T09:09:13.410Z,9.50
2019-03-01T09:11:44.615Z,9.50
2019-03-01T09:14:14.086Z,9.30
2019-03-01T09:16:43.606Z,9.30
2019-03-01T09:19:13.079Z,9.30
2019-03-01T09:21:44.642Z,9.40
2019-03-01T09:24:13.872Z,9.40
2019-03-01T09:26:43.391Z,9.20
2019-03-01T09:29:18.371Z,9.10
2019-03-01T09:31:44.099Z,9.20
2019-03-01T09:34:13.594Z,9.10
2019-03-01T09:36:45.950Z,9.20
2019-03-01T09:39:18.125Z,9.30
2019-03-01T09:41:46.675Z,9.20
2019-03-01T09:44:16.189Z,9.20
2019-03-01T09:46:45.718Z,8.80
2019-03-01T09:49:15.214Z,9.00
2019-03-01T09:51:49.189Z,9.00
2019-03-01T09:54:15.869Z,9.00
2019-03-01T09:56:45.425Z,8.90
2019-03-01T09:59:14.982Z,8.90
2019-03-01T10:01:44.487Z,8.90
2019-03-01T10:04:14.014Z,8.90
2019-03-01T10:06:43.585Z,8.90
2019-03-01T10:09:13.095Z,9.10
2019-03-01T10:11:42.649Z,9.00
2019-03-01T10:14:12.162Z,8.90
2019-03-01T10:16:41.690Z,8.90
2019-03-01T10:19:11.204Z,9.00
2019-03-01T10:21:40.751Z,9.10
2019-03-01T10:24:10.271Z,9.20
2019-03-01T10:26:39.767Z,9.30
2019-03-01T10:29:09.305Z,9.30
2019-03-01T10:31:38.796Z,9.30
2019-03-01T10:34:08.352Z,9.40
2019-03-01T10:36:37.903Z,9.40
2019-03-01T10:39:13.023Z,9.40
2019-03-01T10:41:42.574Z,9.50
2019-03-01T10:44:12.119Z,9.70
2019-03-01T10:46:41.659Z,9.60
2019-03-01T10:49:11.155Z,9.60
2019-03-01T10:51:40.679Z,9.60
2019-03-01T10:54:10.191Z,9.70
2019-03-01T10:56:39.734Z,9.70
2019-03-01T10:59:09.215Z,9.90
2019-03-01T11:01:38.747Z,10.10
2019-03-01T11:04:08.235Z,10.10
2019-03-01T11:06:37.767Z,10.00
2019-03-01T11:09:08.584Z,10.00
2019-03-01T11:11:38.104Z,10.10
2019-03-01T11:14:07.580Z,10.00
2019-03-01T11:16:37.132Z,10.10
2019-03-01T11:19:06.630Z,10.10
2019-03-01T11:21:36.195Z,9.90
2019-03-01T11:24:05.730Z,9.90
2019-03-01T11:26:35.226Z,9.80
2019-03-01T11:29:04.853Z,9.50
2019-03-01T11:31:34.350Z,9.50
2019-03-01T11:34:04.151Z,9.50
2019-03-01T11:36:33.627Z,9.60
2019-03-01T11:39:03.341Z,9.40
2019-03-01T11:41:32.960Z,9.40
2019-03-01T11:44:02.506Z,9.30
2019-03-01T11:46:32.012Z,9.10
2019-03-01T11:49:01.503Z,8.90
2019-03-01T11:51:31.033Z,9.00
2019-03-01T11:54:00.564Z,9.00
2019-03-01T11:56:30.070Z,8.90
2019-03-01T11:58:59.602Z,9.00
2019-03-01T12:01:29.123Z,9.00
2019-03-01T12:03:58.653Z,9.00
2019-03-01T12:06:28.238Z,9.10
2019-03-01T12:08:57.758Z,9.00
2019-03-01T12:11:27.318Z,9.00
2019-03-01T12:13:56.790Z,8.90
2019-03-01T12:16:26.300Z,9.00
2019-03-01T12:18:55.830Z,8.80
2019-03-01T12:21:25.350Z,8.60
2019-03-01T12:23:54.874Z,8.50
2019-03-01T12:26:24.398Z,8.50
2019-03-01T12:28:54.005Z,8.50
2019-03-01T12:31:23.517Z,8.40
2019-03-01T12:33:53.025Z,8.30
2019-03-01T12:36:22.592Z,8.50
2019-03-01T12:38:52.068Z,8.30
2019-03-01T12:41:21.615Z,8.40
2019-03-01T12:43:51.126Z,8.40
2019-03-01T12:46:20.656Z,8.40
2019-03-01T12:48:50.223Z,8.20
2019-03-01T12:51:19.746Z,8.20
2019-03-01T12:53:49.257Z,8.30
2019-03-01T12:56:18.811Z,8.30
2019-03-01T12:58:48.336Z,8.20
2019-03-01T13:01:17.818Z,8.30
2019-03-01T13:03:47.331Z,8.40
2019-03-01T13:06:16.891Z,8.50
2019-03-01T13:08:47.686Z,8.60
2019-03-01T13:11:17.615Z,8.50
2019-03-01T13:13:47.093Z,8.50
2019-03-01T13:16:16.658Z,8.20
2019-03-01T13:18:47.731Z,8.20
2019-03-01T13:21:17.375Z,8.20
2019-03-01T13:23:46.935Z,8.20
2019-03-01T13:26:16.443Z,8.10
2019-03-01T13:28:47.090Z,8.40
2019-03-01T13:31:17.317Z,8.00
2019-03-01T13:33:46.806Z,8.10
2019-03-01T13:36:16.310Z,8.40
2019-03-01T13:38:45.880Z,8.40
2019-03-01T13:41:15.434Z,8.30
2019-03-01T13:43:44.999Z,8.40
2019-03-01T13:46:14.530Z,8.20
2019-03-01T13:48:44.058Z,8.10
2019-03-01T13:51:13.982Z,8.20
2019-03-01T13:53:48.968Z,8.10
2019-03-01T13:56:15.975Z,8.20
2019-03-01T13:58:45.495Z,8.20
2019-03-01T14:01:15.144Z,8.20
2019-03-01T14:03:44.683Z,8.10
2019-03-01T14:06:15.828Z,7.90
2019-03-01T14:08:45.327Z,7.90
2019-03-01T14:11:15.327Z,8.00
2019-03-01T14:13:47.706Z,8.00
2019-03-01T14:16:20.383Z,8.10
2019-03-01T14:18:48.310Z,7.80
2019-03-01T14:21:17.819Z,8.00
2019-03-01T14:23:47.363Z,8.20
2019-03-01T14:26:18.421Z,8.20
2019-03-01T14:28:48.512Z,8.30
2019-03-01T14:31:18.049Z,8.30
2019-03-01T14:33:47.563Z,8.00
2019-03-01T14:36:17.066Z,8.00
2019-03-01T14:38:46.570Z,8.10
2019-03-01T14:41:16.110Z,7.90
2019-03-01T14:43:45.707Z,7.90
2019-03-01T14:46:17.614Z,8.00
2019-03-01T14:48:46.991Z,7.90
2019-03-01T14:51:16.553Z,8.00
2019-03-01T14:53:46.057Z,7.90
2019-03-01T14:56:22.493Z,8.00
2019-03-01T14:59:05.731Z,7.90
2019-03-01T15:02:07.170Z,7.80
2019-03-01T15:04:36.658Z,7.30
2019-03-01T15:07:06.140Z,7.70
2019-03-01T15:09:35.663Z,7.60
2019-03-01T15:12:05.272Z,7.80
2019-03-01T15:14:34.801Z,7.70
2019-03-01T15:17:04.611Z,7.80
2019-03-01T15:19:34.110Z,7.90
2019-03-01T15:22:03.932Z,7.90
2019-03-01T15:24:36.176Z,7.90
2019-03-01T15:27:05.202Z,7.90
2019-03-01T15:29:34.804Z,7.90
2019-03-01T15:32:04.314Z,7.90
2019-03-01T15:34:33.842Z,7.70
2019-03-01T15:37:03.321Z,7.70
2019-03-01T15:39:32.868Z,7.70
2019-03-01T15:42:02.343Z,7.60
2019-03-01T15:44:31.830Z,7.70
2019-03-01T15:47:01.386Z,7.60
2019-03-01T15:49:30.875Z,7.60
2019-03-01T15:52:00.387Z,7.70
2019-03-01T15:54:32.459Z,7.60
2019-03-01T15:57:01.065Z,7.60
2019-03-01T15:59:30.596Z,7.60
2019-03-01T16:02:00.187Z,7.30
2019-03-01T16:04:30.434Z,7.40
2019-03-01T16:07:00.857Z,7.50
2019-03-01T16:09:30.397Z,7.40
2019-03-01T16:11:59.916Z,7.50
2019-03-01T16:14:29.415Z,7.40
2019-03-01T16:16:58.990Z,7.50
2019-03-01T16:19:28.486Z,7.40
2019-03-01T16:21:58.000Z,7.40
2019-03-01T16:24:27.646Z,7.40
2019-03-01T16:26:57.165Z,7.30
2019-03-01T16:29:26.662Z,7.20
2019-03-01T16:31:56.135Z,7.20
2019-03-01T16:34:25.683Z,7.30
2019-03-01T16:36:57.203Z,7.30
2019-03-01T16:39:26.758Z,7.20
2019-03-01T16:41:56.238Z,7.20
2019-03-01T16:44:25.804Z,7.30
2019-03-01T16:46:55.323Z,7.30
2019-03-01T16:49:27.162Z,7.20
2019-03-01T16:51:55.992Z,7.20
2019-03-01T16:54:25.845Z,7.10
2019-03-01T16:56:55.357Z,7.10
2019-03-01T16:59:24.874Z,7.00
2019-03-01T17:01:54.379Z,7.00
2019-03-01T17:04:27.090Z,7.00
2019-03-01T17:06:55.026Z,6.90
2019-03-01T17:09:24.560Z,6.90
2019-03-01T17:11:54.095Z,6.80
2019-03-01T17:14:23.591Z,7.00
2019-03-01T17:16:53.139Z,7.00
2019-03-01T17:19:24.112Z,7.00
2019-03-01T17:21:53.750Z,7.10
2019-03-01T17:24:23.219Z,7.10
2019-03-01T17:26:52.769Z,7.10
2019-03-01T17:29:22.282Z,7.10
2019-03-01T17:31:51.793Z,7.10
2019-03-01T17:34:21.897Z,7.10
2019-03-01T17:36:53.341Z,7.00
2019-03-01T17:39:25.187Z,7.10
2019-03-01T17:41:54.807Z,7.00
2019-03-01T17:44:24.330Z,7.00
2019-03-01T17:46:53.826Z,7.10
2019-03-01T17:49:23.347Z,7.10
2019-03-01T17:51:53.369Z,7.00
2019-03-01T17:54:23.975Z,7.10
2019-03-01T17:56:54.020Z,7.10
2019-03-01T17:59:24.198Z,6.90
2019-03-01T18:01:53.723Z,6.90
2019-03-01T18:04:25.024Z,7.00
2019-03-01T18:06:54.393Z,6.80
2019-03-01T18:09:23.886Z,6.90
2019-03-01T18:11:53.451Z,7.00
2019-03-01T18:14:22.930Z,7.00
2019-03-01T18:16:52.443Z,7.00
2019-03-01T18:19:23.786Z,7.10
2019-03-01T18:21:53.150Z,7.00
2019-03-01T18:24:22.679Z,7.00
2019-03-01T18:26:52.223Z,7.00
2019-03-01T18:29:21.723Z,7.00
2019-03-01T18:31:51.194Z,7.00
2019-03-01T18:34:20.727Z,7.10
2019-03-01T18:36:50.240Z,7.00
2019-03-01T18:39:19.792Z,7.00
2019-03-01T18:41:49.274Z,6.80
2019-03-01T18:44:22.230Z,6.70
2019-03-01T18:46:51.606Z,6.50
2019-03-01T18:49:21.106Z,6.60
2019-03-01T18:51:50.806Z,6.70
2019-03-01T18:54:20.362Z,6.70
2019-03-01T18:56:49.873Z,6.70
2019-03-01T18:59:21.712Z,6.60
2019-03-01T19:01:50.545Z,6.70
2019-03-01T19:04:29.347Z,6.70
2019-03-01T19:06:51.462Z,6.60
2019-03-01T19:09:21.917Z,6.60
2019-03-01T19:11:51.427Z,6.60
2019-03-01T19:14:20.925Z,6.80
2019-03-01T19:16:50.418Z,6.80
2019-03-01T19:19:19.920Z,6.70
2019-03-01T19:21:49.609Z,6.70
2019-03-01T19:24:20.798Z,6.70
2019-03-01T19:26:50.283Z,6.50
2019-03-01T19:29:19.798Z,6.50
2019-03-01T19:31:49.296Z,6.60
2019-03-01T19:34:18.767Z,6.60
2019-03-01T19:36:48.307Z,6.60
2019-03-01T19:39:20.102Z,6.60
2019-03-01T19:41:49.627Z,6.60
2019-03-01T19:44:19.106Z,6.70
2019-03-01T19:46:51.328Z,6.70
2019-03-01T19:49:19.874Z,6.70
2019-03-01T19:51:49.426Z,6.70
2019-03-01T19:54:18.922Z,6.70
2019-03-01T19:56:48.419Z,6.60
2019-03-01T19:59:17.935Z,6.60
2019-03-01T20:01:49.498Z,6.50
2019-03-01T20:04:21.202Z,6.60
2019-03-01T20:06:49.737Z,6.50
2019-03-01T20:09:19.322Z,6.60
2019-03-01T20:11:48.826Z,6.60
2019-03-01T20:14:18.359Z,6.50
2019-03-01T20:16:47.882Z,6.60
2019-03-01T20:19:20.982Z,6.50
2019-03-01T20:21:48.584Z,6.50
2019-03-01T20:24:18.064Z,6.60
2019-03-01T20:26:47.555Z,6.50
2019-03-01T20:29:17.072Z,6.40
2019-03-01T20:31:46.579Z,6.40
2019-03-01T20:34:16.110Z,6.40
2019-03-01T20:36:45.647Z,6.40
2019-03-01T20:39:16.449Z,6.40
2019-03-01T20:41:46.569Z,6.30
2019-03-01T20:44:18.736Z,6.30
2019-03-01T20:46:47.463Z,6.30
2019-03-01T20:49:16.990Z,6.30
2019-03-01T20:51:46.459Z,6.30
2019-03-01T20:54:15.993Z,6.30
2019-03-01T20:56:48.009Z,6.40
2019-03-01T20:59:16.735Z,6.40
2019-03-01T21:01:46.222Z,6.50
2019-03-01T21:04:15.768Z,6.50
2019-03-01T21:06:45.294Z,6.40
2019-03-01T21:09:14.810Z,6.40
2019-03-01T21:11:44.307Z,6.40
2019-03-01T21:14:13.845Z,6.30
2019-03-01T21:16:44.774Z,6.30
2019-03-01T21:19:14.459Z,6.30
2019-03-01T21:21:44.000Z,6.40
2019-03-01T21:24:13.498Z,6.40
2019-03-01T21:26:42.971Z,6.40
2019-03-01T21:29:13.471Z,6.30
2019-03-01T21:31:43.066Z,6.30
2019-03-01T21:34:12.596Z,6.40
2019-03-01T21:36:42.083Z,6.20
2019-03-01T21:39:12.218Z,6.30
2019-03-01T21:41:44.834Z,6.30
2019-03-01T21:44:13.623Z,6.30
2019-03-01T21:46:43.427Z,6.30
2019-03-01T21:49:13.057Z,6.40
2019-03-01T21:51:42.553Z,6.40
2019-03-01T21:54:12.559Z,6.30
2019-03-01T21:56:55.592Z,6.30
2019-03-01T21:59:17.290Z,6.30
2019-03-01T22:01:45.516Z,6.30
2019-03-01T22:04:15.149Z,6.20
2019-03-01T22:06:44.673Z,6.30
2019-03-01T22:09:14.299Z,6.20
2019-03-01T22:11:45.813Z,6.20
2019-03-01T22:14:14.927Z,6.20
2019-03-01T22:16:44.471Z,6.20
2019-03-01T22:19:13.927Z,6.20
2019-03-01T22:21:43.449Z,6.20
2019-03-01T22:24:13.052Z,6.10
2019-03-01T22:26:42.579Z,6.20
2019-03-01T22:29:12.345Z,6.10
2019-03-01T22:31:42.608Z,6.20
2019-03-01T22:34:12.150Z,6.20
2019-03-01T22:36:41.602Z,6.10
2019-03-01T22:39:13.706Z,6.20
2019-03-01T22:41:42.300Z,6.10
2019-03-01T22:44:11.821Z,6.30
2019-03-01T22:46:41.331Z,6.20
2019-03-01T22:49:10.857Z,6.20
2019-03-01T22:51:40.324Z,6.10
2019-03-01T22:54:09.856Z,6.10
2019-03-01T22:56:39.370Z,6.10
2019-03-01T22:59:11.958Z,6.20
2019-03-01T23:01:44.613Z,6.30
2019-03-01T23:04:14.226Z,6.20
2019-03-01T23:06:43.790Z,6.20
2019-03-01T23:09:17.309Z,6.10
2019-03-01T23:11:46.834Z,6.20
2019-03-01T23:14:16.347Z,6.10
2019-03-01T23:16:45.857Z,6.10
2019-03-01T23:19:34.397Z,6.00
2019-03-01T23:22:03.897Z,6.10
2019-03-01T23:24:35.029Z,6.30
2019-03-01T23:27:04.581Z,6.20
2019-03-01T23:29:34.074Z,6.30
2019-03-01T23:32:03.602Z,6.20
2019-03-01T23:34:33.122Z,6.30
2019-03-01T23:37:03.573Z,6.20
2019-03-01T23:39:33.172Z,6.10
2019-03-01T23:42:02.668Z,6.10
2019-03-01T23:44:32.151Z,6.20
2019-03-01T23:47:02.860Z,6.20
2019-03-01T23:49:32.905Z,6.20
2019-03-01T23:52:02.386Z,6.30
2019-03-01T23:54:31.859Z,6.30
2019-03-01T23:57:02.017Z,6.10
2019-03-01T23:59:32.580Z,6.00
